sensor_id;sensor_type;location;lat;lon;timestamp;P1;durP1;ratioP1;P2;durP2;ratioP2
2105;SDS011;1059;52.548;13.408;2022-12-10T00:00:25;19.80;;;12.53;;
2105;SDS011;1059;52.548;13.408;2022-12-10T00:02:54;19.10;;;12.53;;
2105;SDS011;1059;52.548;13.408;2022-12-10T00:05:21;20.40;;;13.47;;
2105;SDS011;1059;52.548;13.408;2022-12-10T00:07:48;19.67;;;12.80;;
2105;SDS011;1059;52.548;13.408;2022-12-10T00:10:14;19.03;;;12.57;;
2105;SDS011;1059;52.548;13.408;2022-12-10T00:12:41;20.50;;;12.73;;
2105;SDS011;1059;52.548;13.408;2022-12-10T00:15:08;25.73;;;14.20;;
2105;SDS011;1059;52.548;13.408;2022-12-10T00:17:36;19.43;;;12.77;;
2105;SDS011;1059;52.548;13.408;2022-12-10T00:20:04;22.77;;;13.40;;
2105;SDS011;1059;52.548;13.408;2022-12-10T00:22:32;22.30;;;13.53;;
2105;SDS011;1059;52.548;13.408;2022-12-10T00:24:59;25.13;;;14.53;;
2105;SDS011;1059;52.548;13.408;2022-12-10T00:27:25;19.43;;;12.37;;
2105;SDS011;1059;52.548;13.408;2022-12-10T00:29:52;21.40;;;12.80;;
2105;SDS011;1059;52.548;13.408;2022-12-10T00:32:19;21.90;;;13.57;;
2105;SDS011;1059;52.548;13.408;2022-12-10T00:34:46;22.20;;;12.53;;
2105;SDS011;1059;52.548;13.408;2022-12-10T00:37:14;17.83;;;11.83;;
2105;SDS011;1059;52.548;13.408;2022-12-10T00:39:41;25.13;;;13.17;;
2105;SDS011;1059;52.548;13.408;2022-12-10T00:42:08;26.57;;;12.93;;
2105;SDS011;1059;52.548;13.408;2022-12-10T00:44:35;22.50;;;13.93;;
2105;SDS011;1059;52.548;13.408;2022-12-10T00:47:01;23.40;;;12.60;;
2105;SDS011;1059;52.548;13.408;2022-12-10T00:49:29;21.47;;;13.50;;
2105;SDS011;1059;52.548;13.408;2022-12-10T00:51:55;20.60;;;13.17;;
2105;SDS011;1059;52.548;13.408;2022-12-10T00:54:24;22.67;;;13.93;;
2105;SDS011;1059;52.548;13.408;2022-12-10T00:56:51;25.33;;;13.00;;
2105;SDS011;1059;52.548;13.408;2022-12-10T00:59:18;20.63;;;12.17;;
2105;SDS011;1059;52.548;13.408;2022-12-10T01:01:44;27.23;;;14.77;;
2105;SDS011;1059;52.548;13.408;2022-12-10T01:04:12;23.23;;;13.83;;
2105;SDS011;1059;52.548;13.408;2022-12-10T01:06:42;22.93;;;13.63;;
2105;SDS011;1059;52.548;13.408;2022-12-10T01:09:11;19.37;;;12.43;;
2105;SDS011;1059;52.548;13.408;2022-12-10T01:11:43;22.07;;;13.47;;
2105;SDS011;1059;52.548;13.408;2022-12-10T01:14:12;24.40;;;12.73;;
2105;SDS011;1059;52.548;13.408;2022-12-10T01:16:42;26.00;;;13.50;;
2105;SDS011;1059;52.548;13.408;2022-12-10T01:19:09;22.23;;;13.07;;
2105;SDS011;1059;52.548;13.408;2022-12-10T01:21:37;21.83;;;13.07;;
2105;SDS011;1059;52.548;13.408;2022-12-10T01:24:04;21.13;;;12.70;;
2105;SDS011;1059;52.548;13.408;2022-12-10T01:26:32;22.17;;;12.00;;
2105;SDS011;1059;52.548;13.408;2022-12-10T01:29:02;20.83;;;13.10;;
2105;SDS011;1059;52.548;13.408;2022-12-10T01:31:30;21.87;;;12.70;;
2105;SDS011;1059;52.548;13.408;2022-12-10T01:33:59;20.30;;;12.57;;
2105;SDS011;1059;52.548;13.408;2022-12-10T01:36:27;20.03;;;13.03;;
2105;SDS011;1059;52.548;13.408;2022-12-10T01:38:56;20.77;;;12.03;;
2105;SDS011;1059;52.548;13.408;2022-12-10T01:41:23;18.67;;;11.47;;
2105;SDS011;1059;52.548;13.408;2022-12-10T01:43:55;20.30;;;12.10;;
2105;SDS011;1059;52.548;13.408;2022-12-10T01:46:26;17.60;;;12.70;;
2105;SDS011;1059;52.548;13.408;2022-12-10T01:48:54;22.70;;;11.90;;
2105;SDS011;1059;52.548;13.408;2022-12-10T01:51:21;19.53;;;12.50;;
2105;SDS011;1059;52.548;13.408;2022-12-10T01:53:50;20.37;;;11.90;;
2105;SDS011;1059;52.548;13.408;2022-12-10T01:56:17;21.13;;;13.70;;
2105;SDS011;1059;52.548;13.408;2022-12-10T01:58:45;18.63;;;12.47;;
2105;SDS011;1059;52.548;13.408;2022-12-10T02:01:15;19.20;;;12.67;;
2105;SDS011;1059;52.548;13.408;2022-12-10T02:03:56;26.10;;;12.87;;
2105;SDS011;1059;52.548;13.408;2022-12-10T02:06:32;18.37;;;12.10;;
2105;SDS011;1059;52.548;13.408;2022-12-10T02:09:09;23.00;;;13.20;;
2105;SDS011;1059;52.548;13.408;2022-12-10T02:11:46;20.87;;;12.73;;
2105;SDS011;1059;52.548;13.408;2022-12-10T02:14:23;18.03;;;11.83;;
2105;SDS011;1059;52.548;13.408;2022-12-10T02:16:55;21.17;;;12.47;;
2105;SDS011;1059;52.548;13.408;2022-12-10T02:19:29;19.37;;;12.47;;
2105;SDS011;1059;52.548;13.408;2022-12-10T02:22:19;16.53;;;11.27;;
2105;SDS011;1059;52.548;13.408;2022-12-10T02:24:48;21.70;;;12.83;;
2105;SDS011;1059;52.548;13.408;2022-12-10T02:27:20;19.40;;;12.40;;
2105;SDS011;1059;52.548;13.408;2022-12-10T02:29:53;19.23;;;12.17;;
2105;SDS011;1059;52.548;13.408;2022-12-10T02:32:22;17.53;;;12.23;;
2105;SDS011;1059;52.548;13.408;2022-12-10T02:34:52;22.97;;;13.93;;
2105;SDS011;1059;52.548;13.408;2022-12-10T02:37:24;21.27;;;13.63;;
2105;SDS011;1059;52.548;13.408;2022-12-10T02:39:55;25.13;;;13.37;;
2105;SDS011;1059;52.548;13.408;2022-12-10T02:42:25;20.20;;;12.57;;
2105;SDS011;1059;52.548;13.408;2022-12-10T02:44:56;19.37;;;12.20;;
2105;SDS011;1059;52.548;13.408;2022-12-10T02:47:23;22.90;;;13.93;;
2105;SDS011;1059;52.548;13.408;2022-12-10T02:49:52;22.27;;;12.70;;
2105;SDS011;1059;52.548;13.408;2022-12-10T02:52:22;28.93;;;15.43;;
2105;SDS011;1059;52.548;13.408;2022-12-10T02:54:50;22.07;;;13.17;;
2105;SDS011;1059;52.548;13.408;2022-12-10T02:57:19;18.60;;;13.03;;
2105;SDS011;1059;52.548;13.408;2022-12-10T03:00:00;21.50;;;12.30;;
2105;SDS011;1059;52.548;13.408;2022-12-10T03:02:34;23.03;;;13.30;;
2105;SDS011;1059;52.548;13.408;2022-12-10T03:05:11;26.57;;;14.33;;
2105;SDS011;1059;52.548;13.408;2022-12-10T03:11:07;24.93;;;13.87;;
2105;SDS011;1059;52.548;13.408;2022-12-10T03:13:39;27.13;;;14.07;;
2105;SDS011;1059;52.548;13.408;2022-12-10T03:16:12;20.57;;;13.20;;
2105;SDS011;1059;52.548;13.408;2022-12-10T03:18:41;25.73;;;14.47;;
2105;SDS011;1059;52.548;13.408;2022-12-10T03:21:10;25.20;;;14.17;;
2105;SDS011;1059;52.548;13.408;2022-12-10T03:23:40;25.60;;;14.17;;
2105;SDS011;1059;52.548;13.408;2022-12-10T03:26:12;25.00;;;14.30;;
2105;SDS011;1059;52.548;13.408;2022-12-10T03:28:40;25.73;;;14.97;;
2105;SDS011;1059;52.548;13.408;2022-12-10T03:31:13;23.67;;;14.80;;
2105;SDS011;1059;52.548;13.408;2022-12-10T03:33:41;24.13;;;14.60;;
2105;SDS011;1059;52.548;13.408;2022-12-10T03:36:09;23.27;;;13.73;;
2105;SDS011;1059;52.548;13.408;2022-12-10T03:38:37;26.50;;;15.43;;
2105;SDS011;1059;52.548;13.408;2022-12-10T03:41:04;24.23;;;14.67;;
2105;SDS011;1059;52.548;13.408;2022-12-10T03:43:31;31.30;;;14.60;;
2105;SDS011;1059;52.548;13.408;2022-12-10T03:45:58;27.60;;;15.60;;
2105;SDS011;1059;52.548;13.408;2022-12-10T03:48:26;23.40;;;14.07;;
2105;SDS011;1059;52.548;13.408;2022-12-10T03:50:53;20.77;;;13.03;;
2105;SDS011;1059;52.548;13.408;2022-12-10T03:53:20;21.60;;;13.73;;
2105;SDS011;1059;52.548;13.408;2022-12-10T03:55:46;24.00;;;13.47;;
2105;SDS011;1059;52.548;13.408;2022-12-10T03:58:13;22.80;;;13.77;;
2105;SDS011;1059;52.548;13.408;2022-12-10T04:00:40;26.00;;;13.87;;
2105;SDS011;1059;52.548;13.408;2022-12-10T04:03:07;21.37;;;13.23;;
2105;SDS011;1059;52.548;13.408;2022-12-10T04:05:36;22.57;;;14.63;;
2105;SDS011;1059;52.548;13.408;2022-12-10T04:08:03;25.40;;;14.33;;
2105;SDS011;1059;52.548;13.408;2022-12-10T04:10:30;25.87;;;14.13;;
2105;SDS011;1059;52.548;13.408;2022-12-10T04:13:01;22.97;;;13.60;;
2105;SDS011;1059;52.548;13.408;2022-12-10T04:15:45;25.67;;;13.20;;
2105;SDS011;1059;52.548;13.408;2022-12-10T04:18:30;24.10;;;13.73;;
2105;SDS011;1059;52.548;13.408;2022-12-10T04:20:58;23.47;;;14.30;;
2105;SDS011;1059;52.548;13.408;2022-12-10T04:23:42;21.07;;;13.97;;
2105;SDS011;1059;52.548;13.408;2022-12-10T04:26:26;20.43;;;13.00;;
2105;SDS011;1059;52.548;13.408;2022-12-10T04:29:07;21.73;;;13.87;;
2105;SDS011;1059;52.548;13.408;2022-12-10T04:31:34;21.87;;;14.40;;
2105;SDS011;1059;52.548;13.408;2022-12-10T04:34:01;20.60;;;13.00;;
2105;SDS011;1059;52.548;13.408;2022-12-10T04:36:30;21.13;;;12.60;;
2105;SDS011;1059;52.548;13.408;2022-12-10T04:38:56;22.37;;;13.37;;
2105;SDS011;1059;52.548;13.408;2022-12-10T04:41:23;23.30;;;14.43;;
2105;SDS011;1059;52.548;13.408;2022-12-10T04:43:51;21.60;;;13.43;;
2105;SDS011;1059;52.548;13.408;2022-12-10T04:46:18;21.17;;;13.67;;
2105;SDS011;1059;52.548;13.408;2022-12-10T04:48:45;21.30;;;13.00;;
2105;SDS011;1059;52.548;13.408;2022-12-10T04:51:12;24.60;;;14.10;;
2105;SDS011;1059;52.548;13.408;2022-12-10T04:53:40;23.80;;;13.17;;
2105;SDS011;1059;52.548;13.408;2022-12-10T04:56:07;23.63;;;14.50;;
2105;SDS011;1059;52.548;13.408;2022-12-10T04:58:34;21.43;;;12.80;;
2105;SDS011;1059;52.548;13.408;2022-12-10T05:01:02;19.67;;;12.27;;
2105;SDS011;1059;52.548;13.408;2022-12-10T05:03:30;22.67;;;13.57;;
2105;SDS011;1059;52.548;13.408;2022-12-10T05:06:00;19.80;;;13.37;;
2105;SDS011;1059;52.548;13.408;2022-12-10T05:08:27;23.23;;;13.40;;
2105;SDS011;1059;52.548;13.408;2022-12-10T05:10:59;23.23;;;14.10;;
2105;SDS011;1059;52.548;13.408;2022-12-10T05:13:26;19.07;;;13.43;;
2105;SDS011;1059;52.548;13.408;2022-12-10T05:15:53;19.80;;;13.70;;
2105;SDS011;1059;52.548;13.408;2022-12-10T05:18:20;18.70;;;12.67;;
2105;SDS011;1059;52.548;13.408;2022-12-10T05:20:47;22.80;;;13.57;;
2105;SDS011;1059;52.548;13.408;2022-12-10T05:23:14;19.57;;;12.70;;
2105;SDS011;1059;52.548;13.408;2022-12-10T05:26:00;20.10;;;12.73;;
2105;SDS011;1059;52.548;13.408;2022-12-10T05:28:29;17.53;;;11.53;;
2105;SDS011;1059;52.548;13.408;2022-12-10T05:30:57;17.97;;;12.53;;
2105;SDS011;1059;52.548;13.408;2022-12-10T05:33:25;19.10;;;12.43;;
2105;SDS011;1059;52.548;13.408;2022-12-10T05:35:53;18.30;;;12.13;;
2105;SDS011;1059;52.548;13.408;2022-12-10T05:38:20;22.60;;;14.30;;
2105;SDS011;1059;52.548;13.408;2022-12-10T05:40:48;15.83;;;12.27;;
2105;SDS011;1059;52.548;13.408;2022-12-10T05:43:16;17.80;;;11.53;;
2105;SDS011;1059;52.548;13.408;2022-12-10T05:45:43;18.50;;;13.10;;
2105;SDS011;1059;52.548;13.408;2022-12-10T05:48:10;17.93;;;11.77;;
2105;SDS011;1059;52.548;13.408;2022-12-10T05:50:38;18.03;;;11.70;;
2105;SDS011;1059;52.548;13.408;2022-12-10T05:53:05;17.70;;;11.20;;
2105;SDS011;1059;52.548;13.408;2022-12-10T05:55:32;15.90;;;11.07;;
2105;SDS011;1059;52.548;13.408;2022-12-10T05:58:00;18.23;;;11.90;;
2105;SDS011;1059;52.548;13.408;2022-12-10T06:00:28;20.30;;;13.23;;
2105;SDS011;1059;52.548;13.408;2022-12-10T06:02:55;18.40;;;12.20;;
2105;SDS011;1059;52.548;13.408;2022-12-10T06:05:21;15.60;;;11.40;;
2105;SDS011;1059;52.548;13.408;2022-12-10T06:07:48;16.63;;;11.90;;
2105;SDS011;1059;52.548;13.408;2022-12-10T06:10:15;19.77;;;13.07;;
2105;SDS011;1059;52.548;13.408;2022-12-10T06:12:42;20.03;;;12.43;;
2105;SDS011;1059;52.548;13.408;2022-12-10T06:15:09;16.27;;;10.73;;
2105;SDS011;1059;52.548;13.408;2022-12-10T06:17:37;14.67;;;10.87;;
2105;SDS011;1059;52.548;13.408;2022-12-10T06:20:05;17.20;;;11.13;;
2105;SDS011;1059;52.548;13.408;2022-12-10T06:22:33;16.57;;;12.03;;
2105;SDS011;1059;52.548;13.408;2022-12-10T06:25:00;17.47;;;12.30;;
2105;SDS011;1059;52.548;13.408;2022-12-10T06:27:28;18.17;;;12.80;;
2105;SDS011;1059;52.548;13.408;2022-12-10T06:29:56;17.47;;;11.20;;
2105;SDS011;1059;52.548;13.408;2022-12-10T06:32:23;18.03;;;12.07;;
2105;SDS011;1059;52.548;13.408;2022-12-10T06:34:51;16.17;;;10.87;;
2105;SDS011;1059;52.548;13.408;2022-12-10T06:37:18;19.03;;;11.27;;
2105;SDS011;1059;52.548;13.408;2022-12-10T06:39:45;14.00;;;10.93;;
2105;SDS011;1059;52.548;13.408;2022-12-10T06:42:12;15.97;;;11.20;;
2105;SDS011;1059;52.548;13.408;2022-12-10T06:44:39;18.13;;;11.67;;
2105;SDS011;1059;52.548;13.408;2022-12-10T06:47:06;18.10;;;12.30;;
2105;SDS011;1059;52.548;13.408;2022-12-10T06:49:33;18.80;;;12.10;;
2105;SDS011;1059;52.548;13.408;2022-12-10T06:52:01;17.70;;;13.30;;
2105;SDS011;1059;52.548;13.408;2022-12-10T06:54:29;15.73;;;10.37;;
2105;SDS011;1059;52.548;13.408;2022-12-10T06:56:55;16.30;;;11.00;;
2105;SDS011;1059;52.548;13.408;2022-12-10T06:59:22;16.30;;;11.50;;
2105;SDS011;1059;52.548;13.408;2022-12-10T07:01:50;18.67;;;12.10;;
2105;SDS011;1059;52.548;13.408;2022-12-10T07:04:16;15.00;;;11.03;;
2105;SDS011;1059;52.548;13.408;2022-12-10T07:06:43;23.70;;;15.57;;
2105;SDS011;1059;52.548;13.408;2022-12-10T07:09:12;14.03;;;10.83;;
2105;SDS011;1059;52.548;13.408;2022-12-10T07:11:39;15.43;;;11.40;;
2105;SDS011;1059;52.548;13.408;2022-12-10T07:14:05;15.97;;;11.50;;
2105;SDS011;1059;52.548;13.408;2022-12-10T07:16:32;14.43;;;11.53;;
2105;SDS011;1059;52.548;13.408;2022-12-10T07:19:00;15.50;;;10.57;;
2105;SDS011;1059;52.548;13.408;2022-12-10T07:21:28;12.27;;;9.90;;
2105;SDS011;1059;52.548;13.408;2022-12-10T07:23:57;14.30;;;9.93;;
2105;SDS011;1059;52.548;13.408;2022-12-10T07:26:27;15.30;;;10.80;;
2105;SDS011;1059;52.548;13.408;2022-12-10T07:28:55;15.10;;;12.17;;
2105;SDS011;1059;52.548;13.408;2022-12-10T07:31:22;13.23;;;10.30;;
2105;SDS011;1059;52.548;13.408;2022-12-10T07:33:49;17.97;;;11.57;;
2105;SDS011;1059;52.548;13.408;2022-12-10T07:36:16;15.40;;;11.20;;
2105;SDS011;1059;52.548;13.408;2022-12-10T07:38:43;17.03;;;11.50;;
2105;SDS011;1059;52.548;13.408;2022-12-10T07:41:10;15.00;;;10.50;;
2105;SDS011;1059;52.548;13.408;2022-12-10T07:43:40;14.17;;;9.80;;
2105;SDS011;1059;52.548;13.408;2022-12-10T07:46:10;16.87;;;11.57;;
2105;SDS011;1059;52.548;13.408;2022-12-10T07:48:39;15.13;;;9.97;;
2105;SDS011;1059;52.548;13.408;2022-12-10T07:51:07;16.37;;;11.30;;
2105;SDS011;1059;52.548;13.408;2022-12-10T07:53:34;17.53;;;11.57;;
2105;SDS011;1059;52.548;13.408;2022-12-10T07:56:01;13.93;;;10.27;;
2105;SDS011;1059;52.548;13.408;2022-12-10T07:58:29;12.87;;;10.47;;
2105;SDS011;1059;52.548;13.408;2022-12-10T08:00:58;16.63;;;11.67;;
2105;SDS011;1059;52.548;13.408;2022-12-10T08:03:25;14.20;;;10.03;;
2105;SDS011;1059;52.548;13.408;2022-12-10T08:06:00;15.60;;;10.50;;
2105;SDS011;1059;52.548;13.408;2022-12-10T08:08:27;14.67;;;10.70;;
2105;SDS011;1059;52.548;13.408;2022-12-10T08:10:54;13.50;;;10.87;;
2105;SDS011;1059;52.548;13.408;2022-12-10T08:13:21;13.40;;;10.93;;
2105;SDS011;1059;52.548;13.408;2022-12-10T08:15:47;17.60;;;12.53;;
2105;SDS011;1059;52.548;13.408;2022-12-10T08:18:16;22.10;;;18.17;;
2105;SDS011;1059;52.548;13.408;2022-12-10T08:20:42;15.57;;;11.33;;
2105;SDS011;1059;52.548;13.408;2022-12-10T08:23:09;16.27;;;11.23;;
2105;SDS011;1059;52.548;13.408;2022-12-10T08:25:36;17.77;;;11.83;;
2105;SDS011;1059;52.548;13.408;2022-12-10T08:28:03;17.07;;;11.50;;
2105;SDS011;1059;52.548;13.408;2022-12-10T08:30:30;16.30;;;11.23;;
2105;SDS011;1059;52.548;13.408;2022-12-10T08:32:57;14.67;;;11.67;;
2105;SDS011;1059;52.548;13.408;2022-12-10T08:35:25;14.50;;;11.70;;
2105;SDS011;1059;52.548;13.408;2022-12-10T08:37:52;16.43;;;12.83;;
2105;SDS011;1059;52.548;13.408;2022-12-10T08:40:19;16.97;;;11.80;;
2105;SDS011;1059;52.548;13.408;2022-12-10T08:42:46;16.57;;;12.47;;
2105;SDS011;1059;52.548;13.408;2022-12-10T08:45:13;15.63;;;11.87;;
2105;SDS011;1059;52.548;13.408;2022-12-10T08:47:41;15.47;;;12.60;;
2105;SDS011;1059;52.548;13.408;2022-12-10T08:50:08;16.50;;;13.23;;
2105;SDS011;1059;52.548;13.408;2022-12-10T08:52:36;16.83;;;12.10;;
2105;SDS011;1059;52.548;13.408;2022-12-10T08:55:04;15.80;;;12.43;;
2105;SDS011;1059;52.548;13.408;2022-12-10T08:57:31;18.10;;;13.67;;
2105;SDS011;1059;52.548;13.408;2022-12-10T08:59:58;14.87;;;12.17;;
2105;SDS011;1059;52.548;13.408;2022-12-10T09:02:25;15.27;;;10.77;;
2105;SDS011;1059;52.548;13.408;2022-12-10T09:04:52;17.90;;;12.77;;
2105;SDS011;1059;52.548;13.408;2022-12-10T09:07:19;17.40;;;11.70;;
2105;SDS011;1059;52.548;13.408;2022-12-10T09:09:48;15.27;;;11.53;;
2105;SDS011;1059;52.548;13.408;2022-12-10T09:12:15;22.30;;;15.97;;
2105;SDS011;1059;52.548;13.408;2022-12-10T09:14:41;15.90;;;13.03;;
2105;SDS011;1059;52.548;13.408;2022-12-10T09:17:08;16.73;;;12.40;;
2105;SDS011;1059;52.548;13.408;2022-12-10T09:19:35;17.27;;;13.30;;
2105;SDS011;1059;52.548;13.408;2022-12-10T09:22:02;15.43;;;13.20;;
2105;SDS011;1059;52.548;13.408;2022-12-10T09:24:29;16.30;;;12.83;;
2105;SDS011;1059;52.548;13.408;2022-12-10T09:26:57;16.37;;;12.20;;
2105;SDS011;1059;52.548;13.408;2022-12-10T09:29:24;19.70;;;13.57;;
2105;SDS011;1059;52.548;13.408;2022-12-10T09:31:51;22.43;;;15.87;;
2105;SDS011;1059;52.548;13.408;2022-12-10T09:34:18;20.67;;;15.87;;
2105;SDS011;1059;52.548;13.408;2022-12-10T09:36:45;17.70;;;13.70;;
2105;SDS011;1059;52.548;13.408;2022-12-10T09:39:12;14.03;;;12.50;;
2105;SDS011;1059;52.548;13.408;2022-12-10T09:41:48;15.63;;;12.43;;
2105;SDS011;1059;52.548;13.408;2022-12-10T09:44:31;18.30;;;12.80;;
2105;SDS011;1059;52.548;13.408;2022-12-10T09:47:08;16.47;;;13.27;;
2105;SDS011;1059;52.548;13.408;2022-12-10T09:49:40;16.13;;;12.00;;
2105;SDS011;1059;52.548;13.408;2022-12-10T09:52:17;16.70;;;12.70;;
2105;SDS011;1059;52.548;13.408;2022-12-10T09:54:48;16.43;;;12.53;;
2105;SDS011;1059;52.548;13.408;2022-12-10T09:57:21;13.00;;;11.60;;
2105;SDS011;1059;52.548;13.408;2022-12-10T09:59:51;16.30;;;12.03;;
2105;SDS011;1059;52.548;13.408;2022-12-10T10:02:20;16.67;;;12.20;;
2105;SDS011;1059;52.548;13.408;2022-12-10T10:04:49;17.90;;;12.93;;
2105;SDS011;1059;52.548;13.408;2022-12-10T10:07:19;15.50;;;12.07;;
2105;SDS011;1059;52.548;13.408;2022-12-10T10:09:49;23.27;;;12.20;;
2105;SDS011;1059;52.548;13.408;2022-12-10T10:12:17;15.33;;;11.20;;
2105;SDS011;1059;52.548;13.408;2022-12-10T10:14:45;17.37;;;13.00;;
2105;SDS011;1059;52.548;13.408;2022-12-10T10:17:13;13.80;;;11.30;;
2105;SDS011;1059;52.548;13.408;2022-12-10T10:19:45;15.83;;;12.53;;
2105;SDS011;1059;52.548;13.408;2022-12-10T10:22:12;14.20;;;11.50;;
2105;SDS011;1059;52.548;13.408;2022-12-10T10:24:40;17.27;;;12.63;;
2105;SDS011;1059;52.548;13.408;2022-12-10T10:27:12;19.20;;;13.33;;
2105;SDS011;1059;52.548;13.408;2022-12-10T10:29:41;18.53;;;12.63;;
2105;SDS011;1059;52.548;13.408;2022-12-10T10:32:12;20.20;;;13.80;;
2105;SDS011;1059;52.548;13.408;2022-12-10T10:34:42;13.73;;;11.40;;
2105;SDS011;1059;52.548;13.408;2022-12-10T10:37:13;15.33;;;11.90;;
2105;SDS011;1059;52.548;13.408;2022-12-10T10:39:52;15.87;;;12.70;;
2105;SDS011;1059;52.548;13.408;2022-12-10T10:42:23;18.27;;;12.97;;
2105;SDS011;1059;52.548;13.408;2022-12-10T10:44:54;18.10;;;13.27;;
2105;SDS011;1059;52.548;13.408;2022-12-10T10:47:27;16.40;;;13.17;;
2105;SDS011;1059;52.548;13.408;2022-12-10T10:49:56;21.30;;;15.27;;
2105;SDS011;1059;52.548;13.408;2022-12-10T10:52:27;16.00;;;12.40;;
2105;SDS011;1059;52.548;13.408;2022-12-10T10:54:55;15.37;;;11.50;;
2105;SDS011;1059;52.548;13.408;2022-12-10T10:57:23;22.10;;;13.80;;
2105;SDS011;1059;52.548;13.408;2022-12-10T10:59:52;17.27;;;12.17;;
2105;SDS011;1059;52.548;13.408;2022-12-10T11:02:29;16.93;;;12.03;;
2105;SDS011;1059;52.548;13.408;2022-12-10T11:05:03;17.00;;;13.43;;
2105;SDS011;1059;52.548;13.408;2022-12-10T11:07:33;16.80;;;13.50;;
2105;SDS011;1059;52.548;13.408;2022-12-10T11:10:02;15.70;;;12.80;;
2105;SDS011;1059;52.548;13.408;2022-12-10T11:12:41;16.10;;;12.37;;
2105;SDS011;1059;52.548;13.408;2022-12-10T11:15:29;18.33;;;13.23;;
2105;SDS011;1059;52.548;13.408;2022-12-10T11:18:00;19.70;;;14.50;;
2105;SDS011;1059;52.548;13.408;2022-12-10T11:20:29;20.07;;;13.77;;
2105;SDS011;1059;52.548;13.408;2022-12-10T11:22:58;21.63;;;15.53;;
2105;SDS011;1059;52.548;13.408;2022-12-10T11:25:30;18.87;;;13.23;;
2105;SDS011;1059;52.548;13.408;2022-12-10T11:28:06;18.33;;;13.00;;
2105;SDS011;1059;52.548;13.408;2022-12-10T11:30:43;19.37;;;13.50;;
2105;SDS011;1059;52.548;13.408;2022-12-10T11:33:22;20.20;;;14.27;;
2105;SDS011;1059;52.548;13.408;2022-12-10T11:35:59;18.83;;;14.10;;
2105;SDS011;1059;52.548;13.408;2022-12-10T11:38:38;17.53;;;13.47;;
2105;SDS011;1059;52.548;13.408;2022-12-10T11:41:15;20.00;;;14.20;;
2105;SDS011;1059;52.548;13.408;2022-12-10T11:43:54;16.77;;;11.83;;
2105;SDS011;1059;52.548;13.408;2022-12-10T11:46:44;16.63;;;12.03;;
2105;SDS011;1059;52.548;13.408;2022-12-10T11:49:25;12.90;;;11.03;;
2105;SDS011;1059;52.548;13.408;2022-12-10T11:52:01;16.13;;;12.77;;
2105;SDS011;1059;52.548;13.408;2022-12-10T11:54:40;15.20;;;11.97;;
2105;SDS011;1059;52.548;13.408;2022-12-10T11:57:21;18.70;;;12.50;;
2105;SDS011;1059;52.548;13.408;2022-12-10T11:59:55;15.10;;;11.53;;
2105;SDS011;1059;52.548;13.408;2022-12-10T12:02:40;14.93;;;12.60;;
2105;SDS011;1059;52.548;13.408;2022-12-10T12:08:18;17.17;;;12.30;;
2105;SDS011;1059;52.548;13.408;2022-12-10T12:10:54;29.70;;;20.57;;
2105;SDS011;1059;52.548;13.408;2022-12-10T12:13:29;17.73;;;12.87;;
2105;SDS011;1059;52.548;13.408;2022-12-10T12:16:02;17.40;;;12.50;;
2105;SDS011;1059;52.548;13.408;2022-12-10T12:18:36;15.77;;;11.83;;
2105;SDS011;1059;52.548;13.408;2022-12-10T12:21:11;19.23;;;13.70;;
2105;SDS011;1059;52.548;13.408;2022-12-10T12:23:43;21.33;;;13.57;;
2105;SDS011;1059;52.548;13.408;2022-12-10T12:26:14;20.70;;;14.47;;
2105;SDS011;1059;52.548;13.408;2022-12-10T12:28:47;19.70;;;14.27;;
2105;SDS011;1059;52.548;13.408;2022-12-10T12:31:19;27.70;;;18.60;;
2105;SDS011;1059;52.548;13.408;2022-12-10T12:33:50;19.30;;;13.90;;
2105;SDS011;1059;52.548;13.408;2022-12-10T12:36:22;18.83;;;13.17;;
2105;SDS011;1059;52.548;13.408;2022-12-10T12:38:54;19.70;;;14.13;;
2105;SDS011;1059;52.548;13.408;2022-12-10T12:41:26;17.97;;;13.13;;
2105;SDS011;1059;52.548;13.408;2022-12-10T12:44:00;17.73;;;13.30;;
2105;SDS011;1059;52.548;13.408;2022-12-10T12:46:35;17.87;;;13.57;;
2105;SDS011;1059;52.548;13.408;2022-12-10T12:49:08;15.47;;;12.33;;
2105;SDS011;1059;52.548;13.408;2022-12-10T12:51:42;23.00;;;13.93;;
2105;SDS011;1059;52.548;13.408;2022-12-10T12:54:14;19.57;;;14.80;;
2105;SDS011;1059;52.548;13.408;2022-12-10T12:56:47;17.10;;;14.33;;
2105;SDS011;1059;52.548;13.408;2022-12-10T12:59:35;21.30;;;14.73;;
2105;SDS011;1059;52.548;13.408;2022-12-10T13:02:20;22.53;;;15.43;;
2105;SDS011;1059;52.548;13.408;2022-12-10T13:05:00;18.47;;;13.80;;
2105;SDS011;1059;52.548;13.408;2022-12-10T13:07:32;18.60;;;14.03;;
2105;SDS011;1059;52.548;13.408;2022-12-10T13:12:50;19.67;;;15.10;;
2105;SDS011;1059;52.548;13.408;2022-12-10T13:15:32;21.40;;;14.50;;
2105;SDS011;1059;52.548;13.408;2022-12-10T13:18:02;21.33;;;14.80;;
2105;SDS011;1059;52.548;13.408;2022-12-10T13:20:32;22.43;;;15.80;;
2105;SDS011;1059;52.548;13.408;2022-12-10T13:23:02;20.47;;;15.30;;
2105;SDS011;1059;52.548;13.408;2022-12-10T13:25:40;26.70;;;15.60;;
2105;SDS011;1059;52.548;13.408;2022-12-10T13:28:25;22.60;;;14.90;;
2105;SDS011;1059;52.548;13.408;2022-12-10T13:31:08;20.30;;;14.23;;
2105;SDS011;1059;52.548;13.408;2022-12-10T13:33:46;21.23;;;14.63;;
2105;SDS011;1059;52.548;13.408;2022-12-10T13:36:19;21.90;;;14.77;;
2105;SDS011;1059;52.548;13.408;2022-12-10T13:38:56;23.87;;;13.90;;
2105;SDS011;1059;52.548;13.408;2022-12-10T13:41:39;21.10;;;13.50;;
2105;SDS011;1059;52.548;13.408;2022-12-10T13:44:45;21.83;;;15.50;;
2105;SDS011;1059;52.548;13.408;2022-12-10T13:47:24;23.33;;;15.27;;
2105;SDS011;1059;52.548;13.408;2022-12-10T13:49:53;22.77;;;14.83;;
2105;SDS011;1059;52.548;13.408;2022-12-10T13:52:23;23.33;;;14.57;;
2105;SDS011;1059;52.548;13.408;2022-12-10T13:55:11;26.13;;;16.43;;
2105;SDS011;1059;52.548;13.408;2022-12-10T13:57:53;24.83;;;15.77;;
2105;SDS011;1059;52.548;13.408;2022-12-10T14:00:44;23.80;;;15.67;;
2105;SDS011;1059;52.548;13.408;2022-12-10T14:06:21;21.70;;;13.93;;
2105;SDS011;1059;52.548;13.408;2022-12-10T14:08:53;22.57;;;13.93;;
2105;SDS011;1059;52.548;13.408;2022-12-10T14:11:25;24.30;;;16.77;;
2105;SDS011;1059;52.548;13.408;2022-12-10T14:13:56;24.53;;;15.67;;
2105;SDS011;1059;52.548;13.408;2022-12-10T14:16:26;22.13;;;14.10;;
2105;SDS011;1059;52.548;13.408;2022-12-10T14:18:56;26.00;;;15.63;;
2105;SDS011;1059;52.548;13.408;2022-12-10T14:21:26;27.80;;;14.27;;
2105;SDS011;1059;52.548;13.408;2022-12-10T14:23:57;22.60;;;14.53;;
2105;SDS011;1059;52.548;13.408;2022-12-10T14:26:27;25.60;;;14.23;;
2105;SDS011;1059;52.548;13.408;2022-12-10T14:28:56;25.63;;;15.13;;
2105;SDS011;1059;52.548;13.408;2022-12-10T14:31:26;25.93;;;15.63;;
2105;SDS011;1059;52.548;13.408;2022-12-10T14:34:00;24.03;;;13.93;;
2105;SDS011;1059;52.548;13.408;2022-12-10T14:36:31;29.17;;;15.87;;
2105;SDS011;1059;52.548;13.408;2022-12-10T14:39:00;23.13;;;14.57;;
2105;SDS011;1059;52.548;13.408;2022-12-10T14:41:30;27.33;;;15.27;;
2105;SDS011;1059;52.548;13.408;2022-12-10T14:43:58;23.60;;;16.17;;
2105;SDS011;1059;52.548;13.408;2022-12-10T14:46:30;27.20;;;15.80;;
2105;SDS011;1059;52.548;13.408;2022-12-10T14:48:58;29.50;;;14.57;;
2105;SDS011;1059;52.548;13.408;2022-12-10T14:51:25;25.60;;;14.90;;
2105;SDS011;1059;52.548;13.408;2022-12-10T14:53:57;23.13;;;14.57;;
2105;SDS011;1059;52.548;13.408;2022-12-10T14:56:26;29.93;;;15.67;;
2105;SDS011;1059;52.548;13.408;2022-12-10T14:58:59;32.20;;;16.60;;
2105;SDS011;1059;52.548;13.408;2022-12-10T15:01:30;28.80;;;16.50;;
2105;SDS011;1059;52.548;13.408;2022-12-10T15:03:59;23.60;;;14.27;;
2105;SDS011;1059;52.548;13.408;2022-12-10T15:06:31;23.10;;;15.77;;